createdAt,value
2023-05-19T00:01:37.607Z,100.00
2023-05-19T00:04:40.877Z,100.00
2023-05-19T00:07:44.654Z,100.00
2023-05-19T00:10:47.627Z,100.00
2023-05-19T00:13:51.159Z,100.00
2023-05-19T00:16:56.151Z,100.00
2023-05-19T00:19:58.735Z,100.00
2023-05-19T00:23:01.942Z,100.00
2023-05-19T00:26:04.645Z,100.00
2023-05-19T00:29:07.427Z,100.00
2023-05-19T00:32:10.233Z,100.00
2023-05-19T00:35:13.340Z,100.00
2023-05-19T00:38:15.881Z,100.00
2023-05-19T00:41:18.823Z,100.00
2023-05-19T00:44:21.478Z,100.00
2023-05-19T00:47:24.437Z,100.00
2023-05-19T00:50:28.376Z,100.00
2023-05-19T00:53:34.025Z,100.00
2023-05-19T00:56:36.637Z,100.00
2023-05-19T00:59:39.477Z,100.00
2023-05-19T01:02:43.407Z,100.00
2023-05-19T01:05:47.541Z,100.00
2023-05-19T01:08:51.746Z,100.00
2023-05-19T01:11:54.651Z,100.00
2023-05-19T01:14:58.646Z,100.00
2023-05-19T01:18:18.830Z,100.00
2023-05-19T01:21:44.553Z,100.00
2023-05-19T01:25:25.031Z,100.00
2023-05-19T01:29:03.125Z,100.00
2023-05-19T01:32:07.787Z,100.00
2023-05-19T01:35:12.844Z,100.00
2023-05-19T01:38:18.697Z,100.00
2023-05-19T01:41:22.551Z,100.00
2023-05-19T01:44:27.400Z,100.00
2023-05-19T01:47:30.604Z,100.00
2023-05-19T01:50:34.816Z,100.00
2023-05-19T01:53:37.589Z,100.00
2023-05-19T01:56:57.115Z,100.00
2023-05-19T02:00:24.912Z,100.00
2023-05-19T02:03:46.212Z,100.00
2023-05-19T02:07:13.553Z,100.00
2023-05-19T02:10:24.310Z,100.00
2023-05-19T02:13:33.915Z,100.00
2023-05-19T02:16:37.803Z,100.00
2023-05-19T02:19:40.488Z,100.00
2023-05-19T02:22:45.974Z,100.00
2023-05-19T02:25:49.071Z,100.00
2023-05-19T02:28:51.901Z,100.00
2023-05-19T02:31:54.680Z,100.00
2023-05-19T02:34:57.576Z,100.00
2023-05-19T02:38:00.066Z,100.00
2023-05-19T02:41:03.310Z,100.00
2023-05-19T02:44:06.131Z,100.00
2023-05-19T02:47:09.021Z,100.00
2023-05-19T02:50:11.689Z,100.00
2023-05-19T02:53:14.574Z,100.00
2023-05-19T02:56:17.071Z,100.00
2023-05-19T02:59:19.953Z,100.00
2023-05-19T03:02:22.483Z,100.00
2023-05-19T03:05:25.275Z,100.00
2023-05-19T03:08:28.337Z,100.00
2023-05-19T03:11:31.490Z,100.00
2023-05-19T03:14:35.180Z,100.00
2023-05-19T03:17:38.012Z,100.00
2023-05-19T03:20:42.372Z,100.00
2023-05-19T03:23:45.498Z,100.00
2023-05-19T03:26:48.031Z,100.00
2023-05-19T03:29:52.840Z,100.00
2023-05-19T03:32:55.620Z,100.00
2023-05-19T03:35:59.036Z,100.00
2023-05-19T03:39:02.376Z,100.00
2023-05-19T03:42:05.846Z,100.00
2023-05-19T03:45:09.918Z,100.00
2023-05-19T03:48:12.911Z,100.00
2023-05-19T03:51:17.548Z,100.00
2023-05-19T03:54:22.513Z,100.00
2023-05-19T03:57:26.961Z,100.00
2023-05-19T04:00:30.695Z,100.00
2023-05-19T04:03:33.885Z,100.00
2023-05-19T04:06:37.817Z,100.00
2023-05-19T04:09:40.576Z,100.00
2023-05-19T04:12:43.413Z,100.00
2023-05-19T04:15:46.310Z,100.00
2023-05-19T04:18:48.899Z,100.00
2023-05-19T04:21:51.935Z,100.00
2023-05-19T04:24:55.297Z,100.00
2023-05-19T04:27:58.843Z,100.00
2023-05-19T04:31:03.522Z,100.00
2023-05-19T04:34:08.009Z,100.00
2023-05-19T04:37:14.288Z,100.00
2023-05-19T04:40:17.376Z,100.00
2023-05-19T04:43:19.926Z,100.00
2023-05-19T04:46:24.546Z,100.00
2023-05-19T04:49:27.533Z,100.00
2023-05-19T04:52:30.854Z,100.00
2023-05-19T04:55:34.230Z,100.00
2023-05-19T04:58:39.585Z,100.00
2023-05-19T05:01:43.685Z,100.00
2023-05-19T05:04:47.108Z,100.00
2023-05-19T05:07:49.967Z,100.00
2023-05-19T05:10:54.045Z,100.00
2023-05-19T05:13:58.323Z,100.00
2023-05-19T05:17:02.522Z,100.00
2023-05-19T05:20:06.688Z,100.00
2023-05-19T05:23:14.482Z,100.00
2023-05-19T05:26:23.300Z,100.00
2023-05-19T05:29:28.566Z,100.00
2023-05-19T05:32:31.494Z,100.00
2023-05-19T05:35:35.266Z,100.00
2023-05-19T05:38:39.398Z,100.00
2023-05-19T05:41:42.449Z,100.00
2023-05-19T05:44:45.346Z,100.00
2023-05-19T05:47:48.739Z,100.00
2023-05-19T05:50:52.425Z,100.00
2023-05-19T05:53:56.609Z,100.00
2023-05-19T05:56:59.991Z,100.00
2023-05-19T06:00:05.968Z,100.00
2023-05-19T06:03:17.771Z,100.00
2023-05-19T06:06:21.509Z,98.39
2023-05-19T06:09:24.105Z,92.51
2023-05-19T06:12:27.627Z,92.70
2023-05-19T06:15:30.613Z,99.08
2023-05-19T06:18:35.186Z,98.30
2023-05-19T06:21:37.759Z,97.63
2023-05-19T06:24:41.682Z,96.73
2023-05-19T06:27:45.432Z,96.09
2023-05-19T06:30:49.461Z,98.35
2023-05-19T06:33:53.789Z,96.05
2023-05-19T06:36:56.611Z,92.02
2023-05-19T06:40:00.539Z,93.58
2023-05-19T06:43:03.600Z,88.05
2023-05-19T06:46:06.899Z,88.63
2023-05-19T06:49:11.089Z,87.71
2023-05-19T06:52:14.888Z,88.26
2023-05-19T06:55:17.783Z,84.82
2023-05-19T06:58:20.415Z,86.13
2023-05-19T07:01:23.278Z,86.36
2023-05-19T07:04:27.281Z,88.14
2023-05-19T07:07:31.676Z,82.08
2023-05-19T07:10:34.695Z,77.27
2023-05-19T07:13:38.616Z,80.12
2023-05-19T07:16:41.318Z,76.01
2023-05-19T07:19:44.316Z,77.10
2023-05-19T07:22:46.910Z,76.83
2023-05-19T07:25:55.105Z,70.19
2023-05-19T07:28:57.918Z,72.21
2023-05-19T07:32:01.005Z,70.27
2023-05-19T07:35:04.380Z,70.02
2023-05-19T07:38:07.555Z,68.90
2023-05-19T07:41:10.225Z,68.13
2023-05-19T07:44:13.276Z,66.45
2023-05-19T07:47:15.909Z,62.10
2023-05-19T07:50:18.731Z,67.92
2023-05-19T07:53:22.685Z,65.27
2023-05-19T07:56:25.860Z,60.80
2023-05-19T07:59:28.427Z,62.41
2023-05-19T08:02:31.510Z,61.53
2023-05-19T08:05:36.080Z,61.23
2023-05-19T08:08:38.564Z,61.43
2023-05-19T08:11:41.631Z,64.13
2023-05-19T08:14:44.107Z,65.12
2023-05-19T08:17:47.157Z,67.47
2023-05-19T08:20:49.675Z,68.58
2023-05-19T08:23:52.451Z,60.35
2023-05-19T08:26:55.745Z,60.52
2023-05-19T08:30:00.173Z,57.54
2023-05-19T08:33:02.814Z,62.75
2023-05-19T08:36:06.618Z,56.24
2023-05-19T08:39:09.047Z,53.63
2023-05-19T08:42:12.473Z,56.45
2023-05-19T08:45:15.767Z,60.53
2023-05-19T08:48:19.387Z,65.83
2023-05-19T08:51:32.037Z,65.50
2023-05-19T08:54:44.761Z,61.59
2023-05-19T08:57:52.069Z,57.86
2023-05-19T09:00:58.864Z,57.73
2023-05-19T09:04:01.908Z,60.36
2023-05-19T09:07:05.424Z,62.71
2023-05-19T09:10:08.985Z,63.18
2023-05-19T09:13:11.998Z,63.27
2023-05-19T09:16:14.739Z,61.07
2023-05-19T09:19:17.594Z,61.92
2023-05-19T09:22:20.637Z,60.79
2023-05-19T09:25:24.456Z,62.10
2023-05-19T09:28:35.617Z,59.46
2023-05-19T09:31:38.478Z,58.11
2023-05-19T09:34:42.150Z,62.54
2023-05-19T09:37:44.969Z,57.17
2023-05-19T09:40:50.002Z,55.88
2023-05-19T09:43:58.560Z,50.02
2023-05-19T09:47:01.143Z,51.77
2023-05-19T09:50:12.605Z,48.67
2023-05-19T09:53:17.328Z,49.48
2023-05-19T09:56:23.828Z,50.93
2023-05-19T09:59:30.540Z,51.79
2023-05-19T10:02:35.201Z,50.65
2023-05-19T10:05:38.618Z,47.62
2023-05-19T10:08:43.706Z,49.51
2023-05-19T10:11:46.519Z,49.65
2023-05-19T10:14:49.643Z,51.54
2023-05-19T10:17:55.549Z,53.59
2023-05-19T10:21:00.411Z,52.12
2023-05-19T10:24:03.271Z,51.96
2023-05-19T10:27:11.968Z,50.73
2023-05-19T10:30:18.860Z,49.23
2023-05-19T10:33:33.893Z,49.71
2023-05-19T10:36:49.766Z,50.41
2023-05-19T10:39:53.057Z,53.42
2023-05-19T10:43:11.940Z,53.77
2023-05-19T10:46:14.568Z,52.56
2023-05-19T10:49:22.213Z,50.75
2023-05-19T10:52:30.162Z,48.87
2023-05-19T10:56:06.962Z,50.63
2023-05-19T10:59:33.615Z,49.60
2023-05-19T11:02:41.582Z,50.07
2023-05-19T11:05:46.310Z,46.54
2023-05-19T11:09:06.185Z,49.04
2023-05-19T11:12:10.777Z,44.33
2023-05-19T11:15:17.125Z,42.98
2023-05-19T11:18:21.015Z,45.67
2023-05-19T11:21:24.004Z,48.02
2023-05-19T11:24:46.287Z,45.38
2023-05-19T11:27:50.810Z,42.87
2023-05-19T11:30:57.419Z,44.69
2023-05-19T11:34:00.995Z,45.63
2023-05-19T11:37:04.696Z,45.50
2023-05-19T11:40:08.311Z,46.74
2023-05-19T11:43:11.308Z,47.68
2023-05-19T11:46:14.362Z,46.09
2023-05-19T11:49:17.081Z,48.03
2023-05-19T11:52:22.456Z,47.82
2023-05-19T11:55:25.338Z,47.31
2023-05-19T11:58:28.320Z,46.62
2023-05-19T12:01:31.943Z,50.19
2023-05-19T12:04:38.875Z,52.78
2023-05-19T12:07:43.260Z,49.62
2023-05-19T12:10:52.023Z,49.78
2023-05-19T12:13:59.110Z,48.39
2023-05-19T12:17:21.462Z,51.40
2023-05-19T12:20:24.931Z,50.92
2023-05-19T12:23:30.745Z,51.23
2023-05-19T12:26:34.988Z,51.74
2023-05-19T12:29:38.754Z,50.38
2023-05-19T12:32:42.776Z,48.72
2023-05-19T12:35:48.034Z,50.39
2023-05-19T12:40:31.199Z,50.56
2023-05-19T12:43:35.152Z,50.34
2023-05-19T12:46:40.543Z,47.92
2023-05-19T12:49:57.231Z,49.53
2023-05-19T12:53:00.057Z,48.25
2023-05-19T12:56:12.694Z,51.56
2023-05-19T12:59:30.978Z,51.58
2023-05-19T13:03:07.805Z,50.39
2023-05-19T13:06:10.759Z,51.41
2023-05-19T13:09:15.152Z,51.96
2023-05-19T13:12:20.505Z,51.52
2023-05-19T13:15:26.184Z,50.76
2023-05-19T13:18:32.241Z,50.38
2023-05-19T13:21:35.670Z,50.27
2023-05-19T13:24:39.671Z,51.07
2023-05-19T13:27:44.407Z,50.41
2023-05-19T13:30:47.155Z,51.16
2023-05-19T13:33:52.810Z,52.27
2023-05-19T13:36:55.607Z,53.10
2023-05-19T13:39:58.647Z,51.58
2023-05-19T13:43:02.518Z,51.41
2023-05-19T13:46:06.013Z,51.86
2023-05-19T13:49:08.466Z,52.38
2023-05-19T13:52:11.638Z,52.41
2023-05-19T13:55:14.833Z,55.14
2023-05-19T13:58:18.067Z,53.66
2023-05-19T14:01:20.710Z,52.63
2023-05-19T14:04:24.504Z,53.01
2023-05-19T14:07:28.291Z,51.22
2023-05-19T14:10:31.546Z,49.72
2023-05-19T14:13:37.125Z,49.97
2023-05-19T14:16:43.014Z,51.00
2023-05-19T14:19:45.715Z,49.35
2023-05-19T14:22:48.525Z,47.93
2023-05-19T14:25:51.266Z,49.08
2023-05-19T14:28:54.251Z,47.87
2023-05-19T14:31:57.119Z,48.78
2023-05-19T14:35:00.061Z,48.59
2023-05-19T14:38:02.806Z,48.88
2023-05-19T14:41:06.844Z,48.95
2023-05-19T14:44:09.445Z,48.21
2023-05-19T14:47:12.660Z,47.15
2023-05-19T14:50:15.831Z,48.87
2023-05-19T14:53:18.608Z,47.41
2023-05-19T14:56:22.612Z,47.75
2023-05-19T14:59:25.955Z,48.11
2023-05-19T15:02:29.793Z,49.06
2023-05-19T15:05:34.599Z,48.22
2023-05-19T15:08:41.521Z,48.51
2023-05-19T15:11:44.390Z,48.23
2023-05-19T15:14:46.998Z,48.26
2023-05-19T15:17:49.811Z,49.71
2023-05-19T15:20:52.351Z,49.40
2023-05-19T15:23:55.350Z,50.01
2023-05-19T15:26:58.143Z,50.76
2023-05-19T15:30:01.197Z,50.74
2023-05-19T15:33:04.191Z,51.41
2023-05-19T15:36:08.282Z,52.37
2023-05-19T15:39:10.948Z,53.02
2023-05-19T15:42:13.757Z,52.34
2023-05-19T15:45:16.238Z,52.07
2023-05-19T15:48:19.343Z,51.36
2023-05-19T15:51:24.147Z,51.63
2023-05-19T15:54:26.928Z,50.86
2023-05-19T15:57:29.396Z,51.23
2023-05-19T16:00:32.560Z,52.21
2023-05-19T16:03:35.765Z,52.98
2023-05-19T16:06:38.605Z,53.75
2023-05-19T16:09:41.500Z,53.75
2023-05-19T16:12:43.959Z,54.17
2023-05-19T16:15:47.098Z,53.58
2023-05-19T16:18:50.101Z,52.84
2023-05-19T16:21:52.940Z,53.58
2023-05-19T16:24:55.683Z,54.31
2023-05-19T16:27:58.717Z,54.57
2023-05-19T16:31:01.396Z,54.83
2023-05-19T16:34:04.216Z,55.38
2023-05-19T16:37:07.075Z,55.35
2023-05-19T16:40:10.214Z,56.94
2023-05-19T16:43:12.745Z,57.96
2023-05-19T16:46:15.665Z,58.89
2023-05-19T16:49:18.208Z,59.26
2023-05-19T16:52:21.104Z,60.09
2023-05-19T16:55:25.349Z,60.62
2023-05-19T16:58:29.604Z,61.05
2023-05-19T17:01:33.448Z,61.55
2023-05-19T17:04:38.739Z,61.85
2023-05-19T17:07:41.249Z,61.53
2023-05-19T17:10:44.901Z,61.77
2023-05-19T17:13:47.489Z,61.72
2023-05-19T17:16:52.506Z,63.07
2023-05-19T17:19:55.335Z,62.54
2023-05-19T17:22:58.300Z,62.71
2023-05-19T17:26:01.810Z,63.57
2023-05-19T17:29:05.914Z,63.56
2023-05-19T17:32:08.436Z,62.51
2023-05-19T17:35:11.501Z,62.08
2023-05-19T17:38:13.996Z,62.64
2023-05-19T17:41:17.108Z,62.90
2023-05-19T17:44:19.610Z,63.25
2023-05-19T17:47:22.466Z,63.55
2023-05-19T17:50:25.093Z,64.36
2023-05-19T17:53:28.158Z,64.91
2023-05-19T17:56:33.703Z,65.42
2023-05-19T17:59:36.804Z,65.33
2023-05-19T18:02:39.831Z,65.65
2023-05-19T18:05:44.661Z,65.65
2023-05-19T18:08:50.474Z,66.03
2023-05-19T18:11:55.532Z,66.62
2023-05-19T18:14:58.175Z,66.74
2023-05-19T18:18:01.587Z,66.85
2023-05-19T18:21:04.291Z,67.66
2023-05-19T18:24:07.100Z,68.05
2023-05-19T18:27:09.562Z,68.55
2023-05-19T18:30:13.111Z,68.21
2023-05-19T18:33:16.352Z,67.83
2023-05-19T18:36:20.532Z,67.77
2023-05-19T18:39:23.071Z,67.54
2023-05-19T18:42:25.999Z,68.84
2023-05-19T18:45:28.559Z,69.09
2023-05-19T18:48:33.220Z,69.18
2023-05-19T18:51:36.273Z,68.97
2023-05-19T18:54:40.631Z,68.34
2023-05-19T18:57:43.156Z,68.55
2023-05-19T19:00:46.105Z,69.38
2023-05-19T19:03:49.351Z,68.62
2023-05-19T19:06:52.485Z,68.64
2023-05-19T19:09:58.020Z,69.11
2023-05-19T19:13:00.939Z,70.35
2023-05-19T19:16:04.009Z,70.56
2023-05-19T19:19:07.257Z,71.07
2023-05-19T19:22:09.880Z,71.62
2023-05-19T19:25:12.708Z,71.66
2023-05-19T19:28:18.385Z,72.24
2023-05-19T19:31:23.206Z,72.61
2023-05-19T19:34:26.242Z,73.84
2023-05-19T19:37:29.093Z,74.23
2023-05-19T19:40:32.526Z,75.36
2023-05-19T19:43:35.648Z,75.81
2023-05-19T19:46:38.197Z,76.32
2023-05-19T19:49:41.365Z,76.84
2023-05-19T19:52:43.894Z,76.83
2023-05-19T19:55:56.023Z,77.30
2023-05-19T19:58:59.322Z,77.63
2023-05-19T20:02:02.551Z,77.66
2023-05-19T20:05:06.332Z,78.18
2023-05-19T20:08:08.954Z,78.64
2023-05-19T20:11:15.220Z,78.70
2023-05-19T20:14:20.289Z,78.93
2023-05-19T20:17:23.199Z,78.38
2023-05-19T20:20:25.827Z,78.84
2023-05-19T20:23:28.987Z,79.05
2023-05-19T20:26:31.635Z,80.43
2023-05-19T20:29:36.673Z,80.93
2023-05-19T20:32:39.996Z,81.66
2023-05-19T20:35:42.932Z,83.02
2023-05-19T20:38:47.972Z,86.64
2023-05-19T20:41:51.044Z,86.62
2023-05-19T20:44:53.658Z,86.97
2023-05-19T20:47:56.677Z,89.42
2023-05-19T20:50:59.300Z,89.90
2023-05-19T20:54:02.689Z,88.92
2023-05-19T20:57:09.105Z,88.28
2023-05-19T21:00:12.307Z,89.09
2023-05-19T21:03:14.993Z,90.92
2023-05-19T21:06:18.069Z,91.52
2023-05-19T21:09:22.210Z,91.59
2023-05-19T21:12:33.811Z,91.38
2023-05-19T21:15:36.732Z,91.69
2023-05-19T21:18:39.476Z,92.36
2023-05-19T21:21:44.739Z,92.84
2023-05-19T21:24:47.651Z,94.02
2023-05-19T21:27:51.405Z,94.84
2023-05-19T21:30:54.279Z,94.91
2023-05-19T21:33:57.115Z,94.75
2023-05-19T21:37:00.032Z,94.87
2023-05-19T21:40:05.537Z,96.02
2023-05-19T21:43:08.657Z,96.40
2023-05-19T21:46:11.178Z,96.63
2023-05-19T21:49:14.086Z,97.63
2023-05-19T21:52:16.646Z,97.46
2023-05-19T21:55:20.162Z,97.70
2023-05-19T21:58:22.858Z,99.53
2023-05-19T22:01:25.842Z,99.94
2023-05-19T22:04:31.467Z,100.00
2023-05-19T22:07:33.914Z,100.00
2023-05-19T22:10:37.345Z,100.00
2023-05-19T22:13:41.185Z,100.00
2023-05-19T22:16:44.525Z,100.00
2023-05-19T22:19:47.101Z,100.00
2023-05-19T22:22:49.913Z,100.00
2023-05-19T22:25:53.884Z,100.00
2023-05-19T22:28:56.668Z,100.00
2023-05-19T22:31:59.360Z,100.00
2023-05-19T22:35:02.169Z,100.00
2023-05-19T22:38:04.683Z,100.00
2023-05-19T22:41:07.755Z,100.00
2023-05-19T22:44:11.381Z,100.00
2023-05-19T22:47:14.373Z,100.00
2023-05-19T22:50:17.163Z,100.00
2023-05-19T22:53:19.909Z,100.00
2023-05-19T22:56:23.182Z,100.00
2023-05-19T22:59:26.093Z,100.00
2023-05-19T23:02:28.713Z,100.00
2023-05-19T23:05:31.695Z,100.00
2023-05-19T23:08:34.406Z,100.00
2023-05-19T23:11:37.363Z,100.00
2023-05-19T23:14:39.839Z,100.00
2023-05-19T23:17:42.818Z,100.00
2023-05-19T23:20:45.710Z,100.00
2023-05-19T23:23:49.705Z,100.00
2023-05-19T23:26:54.663Z,100.00
2023-05-19T23:29:57.560Z,100.00
2023-05-19T23:33:00.075Z,100.00
2023-05-19T23:36:08.346Z,100.00
2023-05-19T23:39:11.364Z,100.00
2023-05-19T23:42:16.594Z,100.00
2023-05-19T23:45:19.097Z,100.00
2023-05-19T23:48:22.028Z,100.00
2023-05-19T23:51:24.510Z,100.00
2023-05-19T23:54:27.256Z,100.00
2023-05-19T23:57:29.862Z,100.00
